sensor_id;sensor_type;location;lat;lon;timestamp;pressure;altitude;pressure_sealevel;temperature;humidity
37304;BME280;23188;51.188;16.374;2023-07-16T00:00:52;99532.95;;;22.76;86.62
37304;BME280;23188;51.188;16.374;2023-07-16T00:05:13;99532.67;;;22.78;86.91
37304;BME280;23188;51.188;16.374;2023-07-16T00:09:16;99527.73;;;22.74;87.11
37304;BME280;23188;51.188;16.374;2023-07-16T00:13:18;99529.58;;;22.67;87.59
37304;BME280;23188;51.188;16.374;2023-07-16T00:17:20;99525.52;;;22.62;88.43
37304;BME280;23188;51.188;16.374;2023-07-16T00:21:22;99527.19;;;22.58;88.96
37304;BME280;23188;51.188;16.374;2023-07-16T00:25:24;99523.31;;;22.55;89.48
37304;BME280;23188;51.188;16.374;2023-07-16T00:29:25;99522.36;;;22.54;89.87
37304;BME280;23188;51.188;16.374;2023-07-16T00:33:28;99526.24;;;22.51;90.30
37304;BME280;23188;51.188;16.374;2023-07-16T00:37:29;99525.49;;;22.50;91.04
37304;BME280;23188;51.188;16.374;2023-07-16T00:41:31;99518.39;;;22.48;91.74
37304;BME280;23188;51.188;16.374;2023-07-16T00:45:33;99513.75;;;22.53;92.77
37304;BME280;23188;51.188;16.374;2023-07-16T00:49:35;99505.88;;;22.61;92.91
37304;BME280;23188;51.188;16.374;2023-07-16T00:53:38;99503.38;;;22.68;92.58
37304;BME280;23188;51.188;16.374;2023-07-16T00:57:41;99508.14;;;22.72;92.45
37304;BME280;23188;51.188;16.374;2023-07-16T01:01:43;99509.45;;;22.74;92.18
37304;BME280;23188;51.188;16.374;2023-07-16T01:05:57;99515.95;;;22.74;92.05
37304;BME280;23188;51.188;16.374;2023-07-16T01:10:03;99548.80;;;22.66;92.33
37304;BME280;23188;51.188;16.374;2023-07-16T01:14:07;99585.39;;;22.38;94.70
37304;BME280;23188;51.188;16.374;2023-07-16T01:18:09;99551.95;;;22.08;96.51
37304;BME280;23188;51.188;16.374;2023-07-16T01:31:11;99571.89;;;21.79;98.48
37304;BME280;23188;51.188;16.374;2023-07-16T01:35:14;99553.83;;;21.70;98.42
37304;BME280;23188;51.188;16.374;2023-07-16T01:39:18;99546.23;;;21.54;99.96
37304;BME280;23188;51.188;16.374;2023-07-16T01:43:20;99535.98;;;21.47;100.00
37304;BME280;23188;51.188;16.374;2023-07-16T01:51:30;99522.70;;;21.46;100.00
37304;BME280;23188;51.188;16.374;2023-07-16T01:55:31;99520.89;;;21.42;100.00
37304;BME280;23188;51.188;16.374;2023-07-16T01:59:33;99528.91;;;21.35;100.00
37304;BME280;23188;51.188;16.374;2023-07-16T02:03:35;99526.27;;;21.32;100.00
37304;BME280;23188;51.188;16.374;2023-07-16T02:07:36;99520.52;;;21.34;100.00
37304;BME280;23188;51.188;16.374;2023-07-16T02:11:38;99523.09;;;21.36;100.00
37304;BME280;23188;51.188;16.374;2023-07-16T02:15:40;99533.77;;;21.46;100.00
37304;BME280;23188;51.188;16.374;2023-07-16T02:19:41;99543.83;;;21.57;100.00
37304;BME280;23188;51.188;16.374;2023-07-16T02:23:43;99550.16;;;21.58;100.00
37304;BME280;23188;51.188;16.374;2023-07-16T02:27:45;99547.31;;;21.49;100.00
37304;BME280;23188;51.188;16.374;2023-07-16T02:31:47;99548.32;;;21.49;100.00
37304;BME280;23188;51.188;16.374;2023-07-16T02:35:50;99551.15;;;21.50;100.00
37304;BME280;23188;51.188;16.374;2023-07-16T02:39:53;99550.58;;;21.47;100.00
37304;BME280;23188;51.188;16.374;2023-07-16T02:44:03;99560.61;;;21.48;100.00
37304;BME280;23188;51.188;16.374;2023-07-16T02:48:06;99573.80;;;21.55;100.00
37304;BME280;23188;51.188;16.374;2023-07-16T02:52:08;99619.95;;;21.66;100.00
37304;BME280;23188;51.188;16.374;2023-07-16T02:56:10;99727.78;;;21.67;100.00
37304;BME280;23188;51.188;16.374;2023-07-16T03:00:11;99714.65;;;21.69;100.00
37304;BME280;23188;51.188;16.374;2023-07-16T03:04:13;99726.11;;;21.95;100.00
37304;BME280;23188;51.188;16.374;2023-07-16T03:08:15;99734.29;;;22.10;100.00
37304;BME280;23188;51.188;16.374;2023-07-16T03:12:16;99761.76;;;22.19;100.00
37304;BME280;23188;51.188;16.374;2023-07-16T03:16:18;99784.79;;;22.30;100.00
37304;BME280;23188;51.188;16.374;2023-07-16T03:20:20;99784.86;;;22.40;100.00
37304;BME280;23188;51.188;16.374;2023-07-16T03:24:22;99798.40;;;22.54;100.00
37304;BME280;23188;51.188;16.374;2023-07-16T03:28:23;99797.36;;;22.71;100.00
37304;BME280;23188;51.188;16.374;2023-07-16T03:32:25;99808.31;;;22.87;100.00
37304;BME280;23188;51.188;16.374;2023-07-16T03:36:39;99823.93;;;23.03;99.82
37304;BME280;23188;51.188;16.374;2023-07-16T03:40:46;99831.65;;;23.20;99.01
37304;BME280;23188;51.188;16.374;2023-07-16T03:44:47;99833.73;;;23.35;98.49
37304;BME280;23188;51.188;16.374;2023-07-16T03:48:49;99828.82;;;23.52;98.02
37304;BME280;23188;51.188;16.374;2023-07-16T03:52:51;99839.71;;;23.66;97.15
37304;BME280;23188;51.188;16.374;2023-07-16T03:56:52;99842.50;;;23.81;95.68
37304;BME280;23188;51.188;16.374;2023-07-16T04:00:54;99847.52;;;23.98;94.81
37304;BME280;23188;51.188;16.374;2023-07-16T04:04:56;99849.14;;;24.16;94.57
37304;BME280;23188;51.188;16.374;2023-07-16T04:08:58;99850.64;;;24.30;93.89
37304;BME280;23188;51.188;16.374;2023-07-16T04:12:59;99847.14;;;24.46;92.62
37304;BME280;23188;51.188;16.374;2023-07-16T04:17:01;99852.65;;;24.67;91.54
37304;BME280;23188;51.188;16.374;2023-07-16T04:21:03;99856.01;;;24.96;90.45
37304;BME280;23188;51.188;16.374;2023-07-16T04:25:05;99863.11;;;25.24;88.95
37304;BME280;23188;51.188;16.374;2023-07-16T04:29:06;99878.30;;;25.86;87.39
37304;BME280;23188;51.188;16.374;2023-07-16T04:33:08;99880.64;;;26.91;83.30
37304;BME280;23188;51.188;16.374;2023-07-16T04:37:10;99887.48;;;27.85;76.65
37304;BME280;23188;51.188;16.374;2023-07-16T04:41:12;99890.90;;;28.61;72.26
37304;BME280;23188;51.188;16.374;2023-07-16T04:45:14;99887.79;;;29.18;68.95
37304;BME280;23188;51.188;16.374;2023-07-16T04:49:15;99886.51;;;29.59;67.04
37304;BME280;23188;51.188;16.374;2023-07-16T04:53:17;99881.81;;;30.11;65.34
37304;BME280;23188;51.188;16.374;2023-07-16T04:57:20;99885.59;;;30.47;63.64
37304;BME280;23188;51.188;16.374;2023-07-16T05:01:25;99895.03;;;30.97;62.11
37304;BME280;23188;51.188;16.374;2023-07-16T05:05:28;99912.40;;;30.82;61.20
37304;BME280;23188;51.188;16.374;2023-07-16T05:09:30;99917.41;;;30.70;62.19
37304;BME280;23188;51.188;16.374;2023-07-16T05:13:32;99918.16;;;31.09;60.77
37304;BME280;23188;51.188;16.374;2023-07-16T05:17:34;99917.52;;;31.38;59.60
37304;BME280;23188;51.188;16.374;2023-07-16T05:21:35;99917.08;;;31.44;59.04
37304;BME280;23188;51.188;16.374;2023-07-16T05:25:37;99923.64;;;31.00;58.96
37304;BME280;23188;51.188;16.374;2023-07-16T05:29:38;99924.16;;;30.19;61.46
37304;BME280;23188;51.188;16.374;2023-07-16T05:33:40;99918.74;;;29.32;64.58
37304;BME280;23188;51.188;16.374;2023-07-16T05:37:41;99933.98;;;28.99;65.84
37304;BME280;23188;51.188;16.374;2023-07-16T05:41:43;99943.72;;;28.71;66.92
37304;BME280;23188;51.188;16.374;2023-07-16T05:45:45;99956.45;;;28.31;67.93
37304;BME280;23188;51.188;16.374;2023-07-16T05:49:47;99961.30;;;28.39;68.32
37304;BME280;23188;51.188;16.374;2023-07-16T05:53:49;99966.27;;;28.58;68.08
37304;BME280;23188;51.188;16.374;2023-07-16T05:57:50;99968.75;;;28.24;67.32
37304;BME280;23188;51.188;16.374;2023-07-16T06:01:52;99978.16;;;28.21;68.24
37304;BME280;23188;51.188;16.374;2023-07-16T06:05:54;99985.05;;;28.35;67.74
37304;BME280;23188;51.188;16.374;2023-07-16T06:09:57;99994.66;;;28.16;68.50
37304;BME280;23188;51.188;16.374;2023-07-16T06:13:58;99995.10;;;28.16;69.14
37304;BME280;23188;51.188;16.374;2023-07-16T06:18:00;99996.54;;;28.43;68.03
37304;BME280;23188;51.188;16.374;2023-07-16T06:22:02;100007.39;;;28.57;66.97
37304;BME280;23188;51.188;16.374;2023-07-16T06:26:04;100014.58;;;28.27;67.76
37304;BME280;23188;51.188;16.374;2023-07-16T06:30:06;100014.42;;;27.68;69.92
37304;BME280;23188;51.188;16.374;2023-07-16T06:34:08;100025.33;;;27.41;71.63
37304;BME280;23188;51.188;16.374;2023-07-16T06:38:09;100021.19;;;27.33;71.70
37304;BME280;23188;51.188;16.374;2023-07-16T06:42:11;100029.80;;;27.20;71.81
37304;BME280;23188;51.188;16.374;2023-07-16T06:46:13;100043.42;;;27.12;72.23
37304;BME280;23188;51.188;16.374;2023-07-16T06:50:15;100055.96;;;27.10;72.95
37304;BME280;23188;51.188;16.374;2023-07-16T06:54:17;100068.81;;;27.08;73.22
37304;BME280;23188;51.188;16.374;2023-07-16T06:58:18;100069.83;;;26.99;73.17
37304;BME280;23188;51.188;16.374;2023-07-16T07:02:20;100073.19;;;26.90;73.26
37304;BME280;23188;51.188;16.374;2023-07-16T07:06:22;100077.77;;;26.82;73.74
37304;BME280;23188;51.188;16.374;2023-07-16T07:10:26;100074.73;;;26.75;74.41
37304;BME280;23188;51.188;16.374;2023-07-16T07:14:28;100078.63;;;26.68;75.33
37304;BME280;23188;51.188;16.374;2023-07-16T07:18:30;100083.20;;;26.56;78.79
37304;BME280;23188;51.188;16.374;2023-07-16T07:22:32;100073.05;;;26.29;83.48
37304;BME280;23188;51.188;16.374;2023-07-16T07:31:18;100064.38;;;25.76;89.74
37304;BME280;23188;51.188;16.374;2023-07-16T07:45:14;100062.27;;;25.53;94.74
37304;BME280;23188;51.188;16.374;2023-07-16T07:49:16;100008.56;;;25.51;96.02
37304;BME280;23188;51.188;16.374;2023-07-16T07:53:18;100008.40;;;25.51;97.37
37304;BME280;23188;51.188;16.374;2023-07-16T07:57:21;99990.11;;;25.51;99.37
37304;BME280;23188;51.188;16.374;2023-07-16T08:01:24;99999.45;;;25.52;100.00
37304;BME280;23188;51.188;16.374;2023-07-16T08:05:27;99983.77;;;25.53;100.00
37304;BME280;23188;51.188;16.374;2023-07-16T08:09:29;99967.30;;;25.61;100.00
37304;BME280;23188;51.188;16.374;2023-07-16T08:13:31;99976.43;;;25.64;100.00
37304;BME280;23188;51.188;16.374;2023-07-16T08:17:33;99959.95;;;25.67;100.00
37304;BME280;23188;51.188;16.374;2023-07-16T08:21:35;99970.88;;;25.69;100.00
37304;BME280;23188;51.188;16.374;2023-07-16T08:25:39;99958.23;;;25.59;100.00
37304;BME280;23188;51.188;16.374;2023-07-16T08:29:41;99976.11;;;25.56;100.00
37304;BME280;23188;51.188;16.374;2023-07-16T08:33:44;99978.82;;;25.50;100.00
37304;BME280;23188;51.188;16.374;2023-07-16T08:37:46;99983.91;;;25.52;100.00
37304;BME280;23188;51.188;16.374;2023-07-16T08:41:48;99981.61;;;25.58;100.00
37304;BME280;23188;51.188;16.374;2023-07-16T08:45:50;99999.01;;;25.63;100.00
37304;BME280;23188;51.188;16.374;2023-07-16T08:49:55;100003.23;;;25.74;100.00
37304;BME280;23188;51.188;16.374;2023-07-16T08:53:58;100021.73;;;25.78;99.48
37304;BME280;23188;51.188;16.374;2023-07-16T08:58:01;100047.81;;;25.65;99.67
37304;BME280;23188;51.188;16.374;2023-07-16T09:02:06;100075.48;;;25.34;100.00
37304;BME280;23188;51.188;16.374;2023-07-16T09:06:08;100074.33;;;25.12;100.00
37304;BME280;23188;51.188;16.374;2023-07-16T09:14:36;100069.06;;;25.11;100.00
37304;BME280;23188;51.188;16.374;2023-07-16T09:18:40;100073.51;;;25.14;100.00
37304;BME280;23188;51.188;16.374;2023-07-16T09:22:44;100082.92;;;25.14;100.00
37304;BME280;23188;51.188;16.374;2023-07-16T09:26:53;100087.91;;;25.23;100.00
37304;BME280;23188;51.188;16.374;2023-07-16T09:31:04;100091.52;;;25.27;100.00
37304;BME280;23188;51.188;16.374;2023-07-16T09:35:15;100118.11;;;25.16;100.00
37304;BME280;23188;51.188;16.374;2023-07-16T09:39:19;100118.02;;;25.17;100.00
37304;BME280;23188;51.188;16.374;2023-07-16T09:43:23;100127.79;;;25.19;100.00
37304;BME280;23188;51.188;16.374;2023-07-16T09:47:25;100129.73;;;25.09;100.00
37304;BME280;23188;51.188;16.374;2023-07-16T09:51:30;100127.10;;;25.05;100.00
37304;BME280;23188;51.188;16.374;2023-07-16T09:55:35;100133.99;;;25.07;100.00
37304;BME280;23188;51.188;16.374;2023-07-16T09:59:38;100142.48;;;25.04;100.00
37304;BME280;23188;51.188;16.374;2023-07-16T10:03:50;100139.65;;;24.98;100.00
37304;BME280;23188;51.188;16.374;2023-07-16T10:08:00;100139.12;;;24.97;100.00
37304;BME280;23188;51.188;16.374;2023-07-16T10:12:13;100140.99;;;25.10;100.00
37304;BME280;23188;51.188;16.374;2023-07-16T10:16:20;100148.87;;;25.32;100.00
37304;BME280;23188;51.188;16.374;2023-07-16T10:20:34;100155.40;;;25.48;99.90
37304;BME280;23188;51.188;16.374;2023-07-16T10:24:41;100152.59;;;25.76;100.00
37304;BME280;23188;51.188;16.374;2023-07-16T10:28:44;100149.61;;;26.10;100.00
37304;BME280;23188;51.188;16.374;2023-07-16T10:32:46;100150.45;;;26.44;99.18
37304;BME280;23188;51.188;16.374;2023-07-16T10:36:50;100135.27;;;26.71;95.20
37304;BME280;23188;51.188;16.374;2023-07-16T10:40:52;100143.56;;;26.89;92.60
37304;BME280;23188;51.188;16.374;2023-07-16T10:44:58;100149.09;;;26.95;90.82
37304;BME280;23188;51.188;16.374;2023-07-16T10:49:01;100155.89;;;26.93;88.22
37304;BME280;23188;51.188;16.374;2023-07-16T10:53:03;100153.23;;;26.99;88.42
37304;BME280;23188;51.188;16.374;2023-07-16T10:57:06;100149.95;;;27.05;85.68
37304;BME280;23188;51.188;16.374;2023-07-16T11:01:09;100151.70;;;27.10;84.75
37304;BME280;23188;51.188;16.374;2023-07-16T11:05:15;100159.00;;;27.13;84.23
37304;BME280;23188;51.188;16.374;2023-07-16T11:09:18;100152.11;;;27.25;83.75
37304;BME280;23188;51.188;16.374;2023-07-16T11:13:25;100155.13;;;27.49;83.35
37304;BME280;23188;51.188;16.374;2023-07-16T11:17:27;100155.27;;;27.69;82.60
37304;BME280;23188;51.188;16.374;2023-07-16T11:21:30;100152.60;;;27.99;82.14
37304;BME280;23188;51.188;16.374;2023-07-16T11:25:33;100152.39;;;28.18;79.74
37304;BME280;23188;51.188;16.374;2023-07-16T11:29:35;100156.44;;;28.21;78.27
37304;BME280;23188;51.188;16.374;2023-07-16T11:33:41;100155.95;;;28.21;78.92
37304;BME280;23188;51.188;16.374;2023-07-16T11:37:46;100156.15;;;28.26;78.58
37304;BME280;23188;51.188;16.374;2023-07-16T11:41:58;100154.42;;;28.28;79.02
37304;BME280;23188;51.188;16.374;2023-07-16T11:46:02;100156.68;;;28.25;78.90
37304;BME280;23188;51.188;16.374;2023-07-16T11:50:05;100155.77;;;28.36;79.90
37304;BME280;23188;51.188;16.374;2023-07-16T11:54:07;100151.45;;;28.43;79.06
37304;BME280;23188;51.188;16.374;2023-07-16T11:58:10;100148.64;;;28.58;78.82
37304;BME280;23188;51.188;16.374;2023-07-16T12:02:13;100149.16;;;28.78;76.82
37304;BME280;23188;51.188;16.374;2023-07-16T12:06:16;100150.05;;;29.02;74.43
37304;BME280;23188;51.188;16.374;2023-07-16T12:10:19;100150.58;;;29.15;74.27
37304;BME280;23188;51.188;16.374;2023-07-16T12:14:22;100144.52;;;29.17;73.01
37304;BME280;23188;51.188;16.374;2023-07-16T12:18:25;100148.70;;;29.19;72.21
37304;BME280;23188;51.188;16.374;2023-07-16T12:22:29;100147.41;;;29.37;73.97
37304;BME280;23188;51.188;16.374;2023-07-16T12:26:31;100145.03;;;29.56;71.42
37304;BME280;23188;51.188;16.374;2023-07-16T12:30:34;100147.65;;;29.66;68.48
37304;BME280;23188;51.188;16.374;2023-07-16T12:34:37;100144.69;;;29.75;67.19
37304;BME280;23188;51.188;16.374;2023-07-16T12:38:40;100139.01;;;29.94;67.90
37304;BME280;23188;51.188;16.374;2023-07-16T12:42:43;100130.27;;;30.12;66.50
37304;BME280;23188;51.188;16.374;2023-07-16T12:46:53;100125.84;;;30.07;65.55
37304;BME280;23188;51.188;16.374;2023-07-16T12:50:56;100122.19;;;30.00;66.30
37304;BME280;23188;51.188;16.374;2023-07-16T12:54:58;100120.05;;;30.16;66.91
37304;BME280;23188;51.188;16.374;2023-07-16T12:59:01;100118.73;;;30.17;65.49
37304;BME280;23188;51.188;16.374;2023-07-16T13:03:03;100130.37;;;29.90;64.62
37304;BME280;23188;51.188;16.374;2023-07-16T13:07:07;100124.52;;;29.91;65.90
37304;BME280;23188;51.188;16.374;2023-07-16T13:11:10;100127.10;;;30.13;64.97
37304;BME280;23188;51.188;16.374;2023-07-16T13:15:13;100133.00;;;30.17;64.72
37304;BME280;23188;51.188;16.374;2023-07-16T13:19:15;100139.35;;;30.15;64.04
37304;BME280;23188;51.188;16.374;2023-07-16T13:23:17;100139.44;;;30.07;65.02
37304;BME280;23188;51.188;16.374;2023-07-16T13:27:22;100152.48;;;29.96;64.25
37304;BME280;23188;51.188;16.374;2023-07-16T13:31:24;100155.03;;;29.74;64.00
37304;BME280;23188;51.188;16.374;2023-07-16T13:35:27;100155.04;;;29.60;64.96
37304;BME280;23188;51.188;16.374;2023-07-16T13:39:29;100151.55;;;29.43;64.66
37304;BME280;23188;51.188;16.374;2023-07-16T13:43:32;100154.04;;;29.17;65.29
37304;BME280;23188;51.188;16.374;2023-07-16T13:47:35;100150.52;;;29.10;65.89
37304;BME280;23188;51.188;16.374;2023-07-16T13:51:37;100145.05;;;28.99;66.16
37304;BME280;23188;51.188;16.374;2023-07-16T13:55:39;100141.23;;;28.88;66.54
37304;BME280;23188;51.188;16.374;2023-07-16T13:59:42;100136.52;;;28.71;66.89
37304;BME280;23188;51.188;16.374;2023-07-16T14:03:44;100141.29;;;28.57;67.28
37304;BME280;23188;51.188;16.374;2023-07-16T14:07:46;100139.19;;;28.46;67.25
37304;BME280;23188;51.188;16.374;2023-07-16T14:11:49;100143.25;;;28.40;68.53
37304;BME280;23188;51.188;16.374;2023-07-16T14:15:51;100146.90;;;28.35;69.52
37304;BME280;23188;51.188;16.374;2023-07-16T14:19:53;100152.89;;;28.33;69.46
37304;BME280;23188;51.188;16.374;2023-07-16T14:23:56;100145.90;;;28.28;69.30
37304;BME280;23188;51.188;16.374;2023-07-16T14:27:58;100140.38;;;28.25;70.19
37304;BME280;23188;51.188;16.374;2023-07-16T14:32:00;100138.42;;;28.20;72.24
37304;BME280;23188;51.188;16.374;2023-07-16T14:36:03;100132.02;;;28.14;73.44
37304;BME280;23188;51.188;16.374;2023-07-16T14:40:06;100129.57;;;28.15;73.92
37304;BME280;23188;51.188;16.374;2023-07-16T14:44:10;100126.45;;;28.17;72.77
37304;BME280;23188;51.188;16.374;2023-07-16T14:48:12;100128.77;;;28.20;72.93
37304;BME280;23188;51.188;16.374;2023-07-16T14:52:15;100127.45;;;28.27;73.34
37304;BME280;23188;51.188;16.374;2023-07-16T14:56:18;100121.15;;;28.54;74.66
37304;BME280;23188;51.188;16.374;2023-07-16T15:00:24;100109.23;;;28.98;70.90
37304;BME280;23188;51.188;16.374;2023-07-16T15:04:28;100105.55;;;29.19;69.08
37304;BME280;23188;51.188;16.374;2023-07-16T15:08:30;100106.27;;;29.29;68.86
37304;BME280;23188;51.188;16.374;2023-07-16T15:12:33;100105.93;;;29.32;67.21
37304;BME280;23188;51.188;16.374;2023-07-16T15:16:36;100106.50;;;29.38;67.43
37304;BME280;23188;51.188;16.374;2023-07-16T15:20:39;100104.35;;;29.38;67.64
37304;BME280;23188;51.188;16.374;2023-07-16T15:24:42;100104.92;;;29.42;67.80
37304;BME280;23188;51.188;16.374;2023-07-16T15:28:44;100098.34;;;29.72;67.92
37304;BME280;23188;51.188;16.374;2023-07-16T15:32:47;100085.90;;;30.20;67.28
37304;BME280;23188;51.188;16.374;2023-07-16T15:36:49;100078.75;;;30.62;65.49
37304;BME280;23188;51.188;16.374;2023-07-16T15:40:52;100079.20;;;30.82;62.63
37304;BME280;23188;51.188;16.374;2023-07-16T15:44:55;100077.34;;;31.05;62.82
37304;BME280;23188;51.188;16.374;2023-07-16T15:48:57;100071.88;;;31.09;62.83
37304;BME280;23188;51.188;16.374;2023-07-16T15:52:59;100068.48;;;31.01;62.92
37304;BME280;23188;51.188;16.374;2023-07-16T15:57:03;100068.14;;;31.00;63.31
37304;BME280;23188;51.188;16.374;2023-07-16T16:01:06;100073.27;;;31.08;63.08
37304;BME280;23188;51.188;16.374;2023-07-16T16:05:10;100075.23;;;31.13;63.46
37304;BME280;23188;51.188;16.374;2023-07-16T16:09:13;100079.86;;;31.17;61.86
37304;BME280;23188;51.188;16.374;2023-07-16T16:13:20;100077.84;;;31.21;60.91
37304;BME280;23188;51.188;16.374;2023-07-16T16:17:23;100078.49;;;31.25;61.08
37304;BME280;23188;51.188;16.374;2023-07-16T16:21:25;100086.59;;;31.29;62.17
37304;BME280;23188;51.188;16.374;2023-07-16T16:25:30;100086.33;;;31.25;61.19
37304;BME280;23188;51.188;16.374;2023-07-16T16:29:39;100084.95;;;31.21;61.46
37304;BME280;23188;51.188;16.374;2023-07-16T16:33:42;100088.76;;;31.16;61.18
37304;BME280;23188;51.188;16.374;2023-07-16T16:37:44;100080.98;;;31.09;59.98
37304;BME280;23188;51.188;16.374;2023-07-16T16:41:49;100081.48;;;31.00;60.32
37304;BME280;23188;51.188;16.374;2023-07-16T16:45:52;100084.92;;;30.93;58.13
37304;BME280;23188;51.188;16.374;2023-07-16T16:49:54;100083.12;;;30.75;57.82
37304;BME280;23188;51.188;16.374;2023-07-16T16:53:56;100083.08;;;30.54;58.63
37304;BME280;23188;51.188;16.374;2023-07-16T16:57:59;100083.65;;;30.42;59.30
37304;BME280;23188;51.188;16.374;2023-07-16T17:02:01;100089.20;;;30.27;58.98
37304;BME280;23188;51.188;16.374;2023-07-16T17:06:04;100090.13;;;30.12;60.92
37304;BME280;23188;51.188;16.374;2023-07-16T17:10:07;100096.57;;;29.99;61.26
37304;BME280;23188;51.188;16.374;2023-07-16T17:14:13;100102.12;;;29.88;61.99
37304;BME280;23188;51.188;16.374;2023-07-16T17:18:15;100099.34;;;29.80;62.24
37304;BME280;23188;51.188;16.374;2023-07-16T17:22:19;100104.92;;;29.68;61.31
37304;BME280;23188;51.188;16.374;2023-07-16T17:26:22;100104.34;;;29.53;61.37
37304;BME280;23188;51.188;16.374;2023-07-16T17:30:27;100104.79;;;29.42;62.57
37304;BME280;23188;51.188;16.374;2023-07-16T17:34:29;100110.86;;;29.31;63.13
37304;BME280;23188;51.188;16.374;2023-07-16T17:38:32;100108.99;;;29.23;64.48
37304;BME280;23188;51.188;16.374;2023-07-16T17:42:35;100107.97;;;29.15;64.96
37304;BME280;23188;51.188;16.374;2023-07-16T17:46:38;100104.47;;;29.07;65.15
37304;BME280;23188;51.188;16.374;2023-07-16T17:50:40;100108.34;;;29.02;64.89
37304;BME280;23188;51.188;16.374;2023-07-16T17:54:43;100105.55;;;28.89;63.84
37304;BME280;23188;51.188;16.374;2023-07-16T17:58:47;100107.38;;;28.80;63.06
37304;BME280;23188;51.188;16.374;2023-07-16T18:02:50;100108.58;;;28.73;62.27
37304;BME280;23188;51.188;16.374;2023-07-16T18:06:54;100110.16;;;28.65;62.32
37304;BME280;23188;51.188;16.374;2023-07-16T18:10:56;100107.94;;;28.52;62.80
37304;BME280;23188;51.188;16.374;2023-07-16T18:14:59;100109.70;;;28.39;64.13
37304;BME280;23188;51.188;16.374;2023-07-16T18:19:01;100118.20;;;28.23;65.41
37304;BME280;23188;51.188;16.374;2023-07-16T18:23:04;100116.67;;;28.03;65.21
37304;BME280;23188;51.188;16.374;2023-07-16T18:27:07;100118.27;;;27.75;64.22
37304;BME280;23188;51.188;16.374;2023-07-16T18:31:09;100124.98;;;27.52;65.74
37304;BME280;23188;51.188;16.374;2023-07-16T18:35:12;100124.30;;;27.36;66.57
37304;BME280;23188;51.188;16.374;2023-07-16T18:39:15;100129.45;;;27.17;67.48
37304;BME280;23188;51.188;16.374;2023-07-16T18:43:17;100133.91;;;26.97;68.12
37304;BME280;23188;51.188;16.374;2023-07-16T18:47:20;100139.39;;;26.75;68.80
37304;BME280;23188;51.188;16.374;2023-07-16T18:51:24;100142.30;;;26.55;70.95
37304;BME280;23188;51.188;16.374;2023-07-16T18:55:26;100142.94;;;26.36;71.36
37304;BME280;23188;51.188;16.374;2023-07-16T18:59:28;100155.90;;;26.16;70.74
37304;BME280;23188;51.188;16.374;2023-07-16T19:03:30;100159.66;;;25.96;70.75
37304;BME280;23188;51.188;16.374;2023-07-16T19:07:33;100162.30;;;25.77;70.91
37304;BME280;23188;51.188;16.374;2023-07-16T19:11:35;100165.80;;;25.54;72.47
37304;BME280;23188;51.188;16.374;2023-07-16T19:15:37;100168.63;;;25.32;72.37
37304;BME280;23188;51.188;16.374;2023-07-16T19:19:39;100173.30;;;25.10;75.03
37304;BME280;23188;51.188;16.374;2023-07-16T19:23:41;100174.52;;;24.89;76.62
37304;BME280;23188;51.188;16.374;2023-07-16T19:27:44;100170.11;;;24.69;77.25
37304;BME280;23188;51.188;16.374;2023-07-16T19:31:46;100171.67;;;24.52;77.98
37304;BME280;23188;51.188;16.374;2023-07-16T19:35:49;100175.20;;;24.33;79.26
37304;BME280;23188;51.188;16.374;2023-07-16T19:39:51;100176.58;;;24.21;79.71
37304;BME280;23188;51.188;16.374;2023-07-16T19:43:53;100175.46;;;24.12;79.53
37304;BME280;23188;51.188;16.374;2023-07-16T19:47:55;100178.98;;;24.06;79.27
37304;BME280;23188;51.188;16.374;2023-07-16T19:51:57;100182.98;;;23.98;80.60
37304;BME280;23188;51.188;16.374;2023-07-16T19:56:00;100187.48;;;23.85;80.97
37304;BME280;23188;51.188;16.374;2023-07-16T20:00:03;100183.07;;;23.73;82.33
37304;BME280;23188;51.188;16.374;2023-07-16T20:04:06;100190.03;;;23.64;83.20
37304;BME280;23188;51.188;16.374;2023-07-16T20:08:09;100189.67;;;23.59;84.27
37304;BME280;23188;51.188;16.374;2023-07-16T20:12:15;100190.34;;;23.57;85.19
37304;BME280;23188;51.188;16.374;2023-07-16T20:16:17;100189.39;;;23.56;84.67
37304;BME280;23188;51.188;16.374;2023-07-16T20:20:19;100191.41;;;23.51;85.31
37304;BME280;23188;51.188;16.374;2023-07-16T20:24:21;100192.14;;;23.45;86.12
37304;BME280;23188;51.188;16.374;2023-07-16T20:28:25;100187.66;;;23.41;87.16
37304;BME280;23188;51.188;16.374;2023-07-16T20:32:27;100198.13;;;23.36;89.09
37304;BME280;23188;51.188;16.374;2023-07-16T20:36:29;100197.80;;;23.26;89.66
37304;BME280;23188;51.188;16.374;2023-07-16T20:40:31;100203.29;;;23.22;90.17
37304;BME280;23188;51.188;16.374;2023-07-16T20:44:33;100209.71;;;23.22;90.18
37304;BME280;23188;51.188;16.374;2023-07-16T20:48:39;100208.36;;;23.26;90.46
37304;BME280;23188;51.188;16.374;2023-07-16T20:52:52;100207.23;;;23.30;90.57
37304;BME280;23188;51.188;16.374;2023-07-16T20:56:54;100205.45;;;23.34;90.26
37304;BME280;23188;51.188;16.374;2023-07-16T21:00:59;100200.77;;;23.39;90.42
37304;BME280;23188;51.188;16.374;2023-07-16T21:05:03;100199.34;;;23.42;89.99
37304;BME280;23188;51.188;16.374;2023-07-16T21:09:07;100195.86;;;23.44;89.95
37304;BME280;23188;51.188;16.374;2023-07-16T21:13:09;100177.92;;;23.52;89.91
37304;BME280;23188;51.188;16.374;2023-07-16T21:17:11;100180.91;;;23.57;89.38
37304;BME280;23188;51.188;16.374;2023-07-16T21:21:13;100188.06;;;23.55;88.64
37304;BME280;23188;51.188;16.374;2023-07-16T21:25:16;100177.64;;;23.52;88.41